createdAt,value
2023-02-21T00:01:03.599Z,10.82
2023-02-21T00:03:52.247Z,13.43
2023-02-21T00:06:39.140Z,13.43
2023-02-21T00:09:25.225Z,15.02
2023-02-21T00:12:11.162Z,13.95
2023-02-21T00:14:57.462Z,13.80
2023-02-21T00:17:43.177Z,13.65
2023-02-21T00:20:29.257Z,14.52
2023-02-21T00:23:16.562Z,12.63
2023-02-21T00:26:02.236Z,13.38
2023-02-21T00:28:50.367Z,13.38
2023-02-21T00:31:37.562Z,13.20
2023-02-21T00:34:23.581Z,12.18
2023-02-21T00:37:11.066Z,13.48
2023-02-21T00:39:58.132Z,13.32
2023-02-21T00:42:44.011Z,14.27
2023-02-21T00:45:30.431Z,14.52
2023-02-21T00:48:17.777Z,13.05
2023-02-21T00:51:03.877Z,12.70
2023-02-21T00:53:49.616Z,12.68
2023-02-21T00:56:36.769Z,12.25
2023-02-21T00:59:22.775Z,13.75
2023-02-21T01:02:08.767Z,12.20
2023-02-21T01:04:55.007Z,12.50
2023-02-21T01:07:40.980Z,13.63
2023-02-21T01:10:27.367Z,11.80
2023-02-21T01:13:14.733Z,12.70
2023-02-21T01:16:00.696Z,12.23
2023-02-21T01:18:46.825Z,12.98
2023-02-21T01:21:33.860Z,11.98
2023-02-21T01:24:19.858Z,12.50
2023-02-21T01:27:05.730Z,11.13
2023-02-21T01:29:53.164Z,10.45
2023-02-21T01:32:39.487Z,11.80
2023-02-21T01:35:25.941Z,10.82
2023-02-21T01:38:12.042Z,12.13
2023-02-21T01:40:58.609Z,10.95
2023-02-21T01:43:46.300Z,10.35
2023-02-21T01:46:35.935Z,11.07
2023-02-21T01:49:29.019Z,10.50
2023-02-21T01:52:18.774Z,11.15
2023-02-21T01:55:11.247Z,12.05
2023-02-21T01:57:58.423Z,11.80
2023-02-21T02:00:45.322Z,13.93
2023-02-21T02:03:35.598Z,14.68
2023-02-21T02:06:23.757Z,12.50
2023-02-21T02:09:09.835Z,11.68
2023-02-21T02:12:20.575Z,15.00
2023-02-21T02:15:16.997Z,12.88
2023-02-21T02:18:05.710Z,13.40
2023-02-21T02:21:01.192Z,13.20
2023-02-21T02:23:55.471Z,11.88
2023-02-21T02:26:51.628Z,12.15
2023-02-21T02:29:49.320Z,13.15
2023-02-21T02:32:56.181Z,12.90
2023-02-21T02:35:29.166Z,13.85
2023-02-21T02:38:03.607Z,14.07
2023-02-21T02:40:36.310Z,12.73
2023-02-21T02:43:12.729Z,11.13
2023-02-21T02:45:45.594Z,15.38
2023-02-21T02:48:17.571Z,13.55
2023-02-21T02:50:49.676Z,13.60
2023-02-21T02:53:20.731Z,12.50
2023-02-21T02:55:55.358Z,13.65
2023-02-21T02:58:28.637Z,14.10
2023-02-21T03:01:21.029Z,15.02
2023-02-21T03:04:24.825Z,15.05
2023-02-21T03:07:05.484Z,13.88
2023-02-21T03:09:43.221Z,13.50
2023-02-21T03:12:20.515Z,12.18
2023-02-21T03:15:00.584Z,12.18
2023-02-21T03:17:33.042Z,13.15
2023-02-21T03:20:05.105Z,15.38
2023-02-21T03:22:36.244Z,13.35
2023-02-21T03:25:06.382Z,14.25
2023-02-21T03:27:39.311Z,13.73
2023-02-21T03:30:37.004Z,12.82
2023-02-21T03:33:05.866Z,13.30
2023-02-21T03:35:34.585Z,13.38
2023-02-21T03:38:05.625Z,12.65
2023-02-21T03:40:35.203Z,11.30
2023-02-21T03:43:07.838Z,13.13
2023-02-21T03:45:44.678Z,13.82
2023-02-21T03:48:26.132Z,15.98
2023-02-21T03:51:00.507Z,14.20
2023-02-21T03:56:05.377Z,13.98
2023-02-21T03:58:49.050Z,12.68
2023-02-21T04:01:17.762Z,14.73
2023-02-21T04:03:46.454Z,12.38
2023-02-21T04:06:15.581Z,15.10
2023-02-21T04:08:45.581Z,12.68
2023-02-21T04:11:14.220Z,11.57
2023-02-21T04:13:43.858Z,12.90
2023-02-21T04:16:12.375Z,12.00
2023-02-21T04:18:40.967Z,13.18
2023-02-21T04:21:10.883Z,11.90
2023-02-21T04:23:39.741Z,11.40
2023-02-21T04:26:09.799Z,12.80
2023-02-21T04:28:43.953Z,11.93
2023-02-21T04:31:12.720Z,11.70
2023-02-21T04:33:41.323Z,10.07
2023-02-21T04:36:12.444Z,10.85
2023-02-21T04:38:43.848Z,13.45
2023-02-21T04:41:13.964Z,11.60
2023-02-21T04:43:43.987Z,10.75
2023-02-21T04:46:15.975Z,10.65
2023-02-21T04:48:45.373Z,14.38
2023-02-21T04:51:15.293Z,10.52
2023-02-21T04:53:44.236Z,9.68
2023-02-21T04:56:14.199Z,10.27
2023-02-21T04:58:45.655Z,10.10
2023-02-21T05:01:15.266Z,10.63
2023-02-21T05:03:44.051Z,11.43
2023-02-21T05:06:17.595Z,11.20
2023-02-21T05:08:46.005Z,12.55
2023-02-21T05:11:16.289Z,11.30
2023-02-21T05:13:45.393Z,12.07
2023-02-21T05:16:16.355Z,10.90
2023-02-21T05:18:45.563Z,12.38
2023-02-21T05:21:14.951Z,13.32
2023-02-21T05:23:55.717Z,11.88
2023-02-21T05:26:37.298Z,13.40
2023-02-21T05:29:06.372Z,11.35
2023-02-21T05:31:35.086Z,11.55
2023-02-21T05:34:03.603Z,13.25
2023-02-21T05:36:32.009Z,16.58
2023-02-21T05:39:00.588Z,12.93
2023-02-21T05:41:30.619Z,12.52
2023-02-21T05:43:59.124Z,12.77
2023-02-21T05:46:29.157Z,14.02
2023-02-21T05:48:59.357Z,13.60
2023-02-21T05:51:28.462Z,12.63
2023-02-21T05:53:56.947Z,13.63
2023-02-21T05:56:25.437Z,12.40
2023-02-21T05:58:55.228Z,12.40
2023-02-21T06:01:23.684Z,15.80
2023-02-21T06:03:52.223Z,14.57
2023-02-21T06:06:20.828Z,15.85
2023-02-21T06:08:51.198Z,15.88
2023-02-21T06:11:25.266Z,13.35
2023-02-21T06:13:57.183Z,13.30
2023-02-21T06:16:26.437Z,13.30
2023-02-21T06:18:56.860Z,14.77
2023-02-21T06:21:25.302Z,12.05
2023-02-21T06:23:53.720Z,11.75
2023-02-21T06:26:22.560Z,13.43
2023-02-21T06:28:51.632Z,13.63
2023-02-21T06:31:22.168Z,13.23
2023-02-21T06:33:51.575Z,12.02
2023-02-21T06:36:25.271Z,13.23
2023-02-21T06:38:56.705Z,13.03
2023-02-21T06:41:27.580Z,14.35
2023-02-21T06:43:56.927Z,12.85
2023-02-21T06:46:28.583Z,12.98
2023-02-21T06:48:57.069Z,11.95
2023-02-21T06:51:29.746Z,14.30
2023-02-21T06:53:59.122Z,13.68
2023-02-21T06:56:28.048Z,13.35
2023-02-21T06:58:56.669Z,14.18
2023-02-21T07:01:29.043Z,15.05
2023-02-21T07:03:58.715Z,15.57
2023-02-21T07:06:29.620Z,16.63
2023-02-21T07:08:58.504Z,16.42
2023-02-21T07:11:26.917Z,15.13
2023-02-21T07:13:56.674Z,13.63
2023-02-21T07:16:25.266Z,13.38
2023-02-21T07:18:55.329Z,13.23
2023-02-21T07:21:23.879Z,15.35
2023-02-21T07:23:52.313Z,14.57
2023-02-21T07:26:20.778Z,14.18
2023-02-21T07:28:49.512Z,15.90
2023-02-21T07:31:19.870Z,15.10
2023-02-21T07:33:48.565Z,16.30
2023-02-21T07:36:18.418Z,16.75
2023-02-21T07:38:46.873Z,16.33
2023-02-21T07:41:16.770Z,14.73
2023-02-21T07:43:45.451Z,15.65
2023-02-21T07:46:15.816Z,15.02
2023-02-21T07:48:44.261Z,13.88
2023-02-21T07:51:13.234Z,11.77
2023-02-21T07:53:43.137Z,14.40
2023-02-21T07:56:11.905Z,11.70
2023-02-21T07:58:40.325Z,13.50
2023-02-21T08:01:08.890Z,12.45
2023-02-21T08:03:37.880Z,13.05
2023-02-21T08:06:06.752Z,12.48
2023-02-21T08:08:35.178Z,12.60
2023-02-21T08:11:05.433Z,10.50
2023-02-21T08:13:34.147Z,11.88
2023-02-21T08:16:02.788Z,13.27
2023-02-21T08:18:31.318Z,14.55
2023-02-21T08:20:59.703Z,12.32
2023-02-21T08:23:28.311Z,13.20
2023-02-21T08:25:56.766Z,12.77
2023-02-21T08:28:26.620Z,12.05
2023-02-21T08:30:55.065Z,13.40
2023-02-21T08:33:23.815Z,12.65
2023-02-21T08:35:52.521Z,10.88
2023-02-21T08:38:21.659Z,11.60
2023-02-21T08:40:51.479Z,11.30
2023-02-21T08:43:19.924Z,13.05
2023-02-21T08:45:49.813Z,13.07
2023-02-21T08:48:18.518Z,12.48
2023-02-21T08:50:46.966Z,11.95
2023-02-21T08:53:16.026Z,11.57
2023-02-21T08:55:45.096Z,10.80
2023-02-21T08:58:14.188Z,12.10
2023-02-21T09:00:42.853Z,11.15
2023-02-21T09:03:12.918Z,8.90
2023-02-21T09:05:41.577Z,9.43
2023-02-21T09:08:10.585Z,8.77
2023-02-21T09:10:40.928Z,9.13
2023-02-21T09:13:09.502Z,9.95
2023-02-21T09:15:37.982Z,8.68
2023-02-21T09:18:06.935Z,9.70
2023-02-21T09:20:41.621Z,9.93
2023-02-21T09:25:38.489Z,9.73
2023-02-21T09:28:06.993Z,8.82
2023-02-21T09:30:35.589Z,10.13
2023-02-21T09:33:04.133Z,9.50
2023-02-21T09:35:35.496Z,9.55
2023-02-21T09:38:07.332Z,8.60
2023-02-21T09:40:41.044Z,8.95
2023-02-21T09:43:22.266Z,9.60
2023-02-21T09:45:55.008Z,9.45
2023-02-21T09:48:24.619Z,11.00
2023-02-21T09:50:55.858Z,9.32
2023-02-21T09:53:28.748Z,9.18
2023-02-21T09:56:01.799Z,9.32
2023-02-21T09:58:30.467Z,9.85
2023-02-21T10:01:02.189Z,8.75
2023-02-21T10:03:49.952Z,10.50
2023-02-21T10:06:30.047Z,9.88
2023-02-21T10:09:07.039Z,8.65
2023-02-21T10:11:49.284Z,7.90
2023-02-21T10:14:28.666Z,10.43
2023-02-21T10:17:04.368Z,8.20
2023-02-21T10:19:36.760Z,10.18
2023-02-21T10:22:15.686Z,10.50
2023-02-21T10:24:45.729Z,10.48
2023-02-21T10:27:18.859Z,10.52
2023-02-21T10:29:54.649Z,9.77
2023-02-21T10:32:24.678Z,8.85
2023-02-21T10:34:55.636Z,8.48
2023-02-21T10:37:34.314Z,9.40
2023-02-21T10:40:09.344Z,8.70
2023-02-21T10:42:42.836Z,8.55
2023-02-21T10:45:13.726Z,8.13
2023-02-21T10:47:54.701Z,10.82
2023-02-21T10:50:40.736Z,8.75
2023-02-21T10:53:10.093Z,8.30
2023-02-21T10:55:39.935Z,9.05
2023-02-21T10:58:10.569Z,9.38
2023-02-21T11:00:42.096Z,9.07
2023-02-21T11:03:22.920Z,7.35
2023-02-21T11:05:52.384Z,10.75
2023-02-21T11:08:36.859Z,9.27
2023-02-21T11:11:07.423Z,8.02
2023-02-21T11:13:37.064Z,9.68
2023-02-21T11:16:13.143Z,9.07
2023-02-21T11:18:41.709Z,8.93
2023-02-21T11:21:16.621Z,10.60
2023-02-21T11:23:49.547Z,9.82
2023-02-21T11:26:20.097Z,9.63
2023-02-21T11:28:49.076Z,8.10
2023-02-21T11:31:24.296Z,9.57
2023-02-21T11:33:58.201Z,9.27
2023-02-21T11:36:31.679Z,7.63
2023-02-21T11:39:07.388Z,9.38
2023-02-21T11:41:48.168Z,10.50
2023-02-21T11:44:29.532Z,8.57
2023-02-21T11:47:08.352Z,9.48
2023-02-21T11:49:47.671Z,8.57
2023-02-21T11:52:23.877Z,7.93
2023-02-21T11:54:52.489Z,7.85
2023-02-21T11:57:31.193Z,7.40
2023-02-21T12:00:21.113Z,8.40
2023-02-21T12:03:07.344Z,8.90
2023-02-21T12:05:54.948Z,7.32
2023-02-21T12:08:46.773Z,6.60
2023-02-21T12:11:38.067Z,7.65
2023-02-21T12:14:31.466Z,7.00
2023-02-21T12:17:10.239Z,7.40
2023-02-21T12:19:55.945Z,8.50
2023-02-21T12:22:42.853Z,7.13
2023-02-21T12:25:21.178Z,7.88
2023-02-21T12:27:56.471Z,6.78
2023-02-21T12:30:52.973Z,6.65
2023-02-21T12:33:32.102Z,9.23
2023-02-21T12:36:27.352Z,8.15
2023-02-21T12:39:04.927Z,6.80
2023-02-21T12:41:49.234Z,6.38
2023-02-21T12:44:22.459Z,6.80
2023-02-21T12:46:59.175Z,8.02
2023-02-21T12:49:32.268Z,9.32
2023-02-21T12:52:08.090Z,11.73
2023-02-21T12:54:45.922Z,10.90
2023-02-21T12:57:22.413Z,9.07
2023-02-21T12:59:58.363Z,8.70
2023-02-21T13:02:47.384Z,8.57
2023-02-21T13:05:21.185Z,10.15
2023-02-21T13:08:00.008Z,7.97
2023-02-21T13:10:35.230Z,7.80
2023-02-21T13:13:11.209Z,10.55
2023-02-21T13:15:42.454Z,7.45
2023-02-21T13:18:20.085Z,11.05
2023-02-21T13:20:54.137Z,10.73
2023-02-21T13:24:00.137Z,9.65
2023-02-21T13:27:03.730Z,8.43
2023-02-21T13:29:34.155Z,10.55
2023-02-21T13:32:07.619Z,9.63
2023-02-21T13:34:45.770Z,10.02
2023-02-21T13:37:19.321Z,9.80
2023-02-21T13:39:54.124Z,11.00
2023-02-21T13:42:25.831Z,14.00
2023-02-21T13:45:07.724Z,11.85
2023-02-21T13:48:19.464Z,12.25
2023-02-21T13:50:57.707Z,11.93
2023-02-21T13:53:33.150Z,10.10
2023-02-21T13:56:17.594Z,10.45
2023-02-21T13:58:47.187Z,10.38
2023-02-21T14:01:52.220Z,15.30
2023-02-21T14:05:00.473Z,14.55
2023-02-21T14:08:09.355Z,11.45
2023-02-21T14:10:44.518Z,12.70
2023-02-21T14:13:27.484Z,10.90
2023-02-21T14:16:02.577Z,13.63
2023-02-21T14:18:40.526Z,11.23
2023-02-21T14:21:15.966Z,11.93
2023-02-21T14:23:51.224Z,10.52
2023-02-21T14:26:45.466Z,11.45
2023-02-21T14:29:17.642Z,14.05
2023-02-21T14:31:55.593Z,12.40
2023-02-21T14:34:29.266Z,13.00
2023-02-21T14:37:02.111Z,14.35
2023-02-21T14:39:37.455Z,14.10
2023-02-21T14:42:23.652Z,13.07
2023-02-21T14:45:06.180Z,12.13
2023-02-21T14:48:01.933Z,10.80
2023-02-21T14:50:37.350Z,12.90
2023-02-21T14:53:33.639Z,10.85
2023-02-21T14:56:28.946Z,10.65
2023-02-21T14:59:27.092Z,9.25
2023-02-21T15:02:15.220Z,9.57
2023-02-21T15:04:49.469Z,10.73
2023-02-21T15:07:24.595Z,12.13
2023-02-21T15:10:16.394Z,10.10
2023-02-21T15:12:51.595Z,11.15
2023-02-21T15:15:25.067Z,9.68
2023-02-21T15:18:02.169Z,10.05
2023-02-21T15:20:33.717Z,9.73
2023-02-21T15:23:08.762Z,9.38
2023-02-21T15:25:37.727Z,10.43
2023-02-21T15:28:08.465Z,9.73
2023-02-21T15:30:42.699Z,8.98
2023-02-21T15:33:17.722Z,8.27
2023-02-21T15:35:51.158Z,8.38
2023-02-21T15:38:24.222Z,8.68
2023-02-21T15:40:56.653Z,8.77
2023-02-21T15:43:35.873Z,9.27
2023-02-21T15:46:09.225Z,8.80
2023-02-21T15:48:38.135Z,9.40
2023-02-21T15:51:10.588Z,7.95
2023-02-21T15:53:39.829Z,9.27
2023-02-21T15:56:25.060Z,8.23
2023-02-21T15:59:15.150Z,8.13
2023-02-21T16:01:45.287Z,7.63
2023-02-21T16:04:23.374Z,7.72
2023-02-21T16:06:54.677Z,8.57
2023-02-21T16:09:27.488Z,8.45
2023-02-21T16:12:01.651Z,8.20
2023-02-21T16:14:40.556Z,8.32
2023-02-21T16:17:20.612Z,7.43
2023-02-21T16:19:53.876Z,7.07
2023-02-21T16:22:38.747Z,7.30
2023-02-21T16:25:19.921Z,7.22
2023-02-21T16:27:51.185Z,7.82
2023-02-21T16:30:22.010Z,6.65
2023-02-21T16:32:53.619Z,6.50
2023-02-21T16:35:24.414Z,6.93
2023-02-21T16:37:56.185Z,6.20
2023-02-21T16:40:27.620Z,5.70
2023-02-21T16:42:58.841Z,6.47
2023-02-21T16:45:27.347Z,7.07
2023-02-21T16:47:59.552Z,6.45
2023-02-21T16:50:31.119Z,6.60
2023-02-21T16:53:00.225Z,7.82
2023-02-21T16:55:29.343Z,6.82
2023-02-21T16:58:00.288Z,7.15
2023-02-21T17:00:29.046Z,7.28
2023-02-21T17:02:58.954Z,6.60
2023-02-21T17:05:27.957Z,7.18
2023-02-21T17:07:58.548Z,7.75
2023-02-21T17:10:27.212Z,6.72
2023-02-21T17:12:56.157Z,7.03
2023-02-21T17:15:27.117Z,7.57
2023-02-21T17:17:55.700Z,7.45
2023-02-21T17:20:26.543Z,7.72
2023-02-21T17:22:58.397Z,7.75
2023-02-21T17:25:29.036Z,6.97
2023-02-21T17:27:57.918Z,8.07
2023-02-21T17:30:27.259Z,7.53
2023-02-21T17:32:56.193Z,7.93
2023-02-21T17:35:27.958Z,7.18
2023-02-21T17:37:56.531Z,7.28
2023-02-21T17:40:25.062Z,6.50
2023-02-21T17:42:53.728Z,7.32
2023-02-21T17:45:23.124Z,6.75
2023-02-21T17:47:54.271Z,6.53
2023-02-21T17:50:25.647Z,6.93
2023-02-21T17:52:55.628Z,6.50
2023-02-21T17:55:26.804Z,7.40
2023-02-21T17:57:55.575Z,6.75
2023-02-21T18:00:28.638Z,6.38
2023-02-21T18:02:57.639Z,6.32
2023-02-21T18:05:26.587Z,7.63
2023-02-21T18:07:57.829Z,6.60
2023-02-21T18:10:29.400Z,6.90
2023-02-21T18:12:58.818Z,7.50
2023-02-21T18:15:28.994Z,7.25
2023-02-21T18:18:03.922Z,7.18
2023-02-21T18:20:32.783Z,6.43
2023-02-21T18:23:06.355Z,6.05
2023-02-21T18:25:34.887Z,5.97
2023-02-21T18:28:04.244Z,6.85
2023-02-21T18:30:33.005Z,6.80
2023-02-21T18:33:01.565Z,7.70
2023-02-21T18:35:30.014Z,6.45
2023-02-21T18:37:58.540Z,6.70
2023-02-21T18:40:35.190Z,7.20
2023-02-21T18:43:05.943Z,7.10
2023-02-21T18:45:35.161Z,6.80
2023-02-21T18:48:04.397Z,6.72
2023-02-21T18:50:32.861Z,6.00
2023-02-21T18:53:02.307Z,6.78
2023-02-21T18:55:32.808Z,7.00
2023-02-21T18:58:01.803Z,6.35
2023-02-21T19:00:33.631Z,7.00
2023-02-21T19:03:02.390Z,6.78
2023-02-21T19:05:31.125Z,7.15
2023-02-21T19:08:00.056Z,7.65
2023-02-21T19:10:30.064Z,7.72
2023-02-21T19:13:02.013Z,6.95
2023-02-21T19:15:31.640Z,6.70
2023-02-21T19:18:00.628Z,6.45
2023-02-21T19:20:29.226Z,6.30
2023-02-21T19:22:57.761Z,6.57
2023-02-21T19:25:28.056Z,6.18
2023-02-21T19:28:00.511Z,6.47
2023-02-21T19:30:36.427Z,7.13
2023-02-21T19:33:06.797Z,6.63
2023-02-21T19:35:36.356Z,6.65
2023-02-21T19:38:07.064Z,6.55
2023-02-21T19:40:36.559Z,6.22
2023-02-21T19:43:06.343Z,6.90
2023-02-21T19:45:36.476Z,6.47
2023-02-21T19:48:05.368Z,7.03
2023-02-21T19:50:35.179Z,6.50
2023-02-21T19:53:03.880Z,6.38
2023-02-21T19:55:32.366Z,5.82
2023-02-21T19:58:06.263Z,6.10
2023-02-21T20:00:42.659Z,5.97
2023-02-21T20:03:11.495Z,6.05
2023-02-21T20:05:39.976Z,5.45
2023-02-21T20:08:08.488Z,6.72
2023-02-21T20:10:36.947Z,6.25
2023-02-21T20:13:07.419Z,6.00
2023-02-21T20:15:37.613Z,6.88
2023-02-21T20:18:06.188Z,6.05
2023-02-21T20:20:34.611Z,6.75
2023-02-21T20:23:07.411Z,6.22
2023-02-21T20:25:38.504Z,6.20
2023-02-21T20:28:07.285Z,7.22
2023-02-21T20:30:37.909Z,6.50
2023-02-21T20:33:06.940Z,7.00
2023-02-21T20:35:35.431Z,6.65
2023-02-21T20:38:05.903Z,6.53
2023-02-21T20:40:36.504Z,5.93
2023-02-21T20:43:05.153Z,7.13
2023-02-21T20:45:38.642Z,6.18
2023-02-21T20:48:11.052Z,6.07
2023-02-21T20:50:41.863Z,6.70
2023-02-21T20:53:11.784Z,6.13
2023-02-21T20:55:40.787Z,6.68
2023-02-21T20:58:10.835Z,6.40
2023-02-21T21:00:44.846Z,6.70
2023-02-21T21:03:19.304Z,6.93
2023-02-21T21:05:57.641Z,6.53
2023-02-21T21:08:30.692Z,6.70
2023-02-21T21:11:12.483Z,5.60
2023-02-21T21:13:47.851Z,6.07
2023-02-21T21:16:21.904Z,5.65
2023-02-21T21:18:53.091Z,6.38
2023-02-21T21:21:29.214Z,6.22
2023-02-21T21:24:07.267Z,5.75
2023-02-21T21:26:38.089Z,6.18
2023-02-21T21:29:12.173Z,6.35
2023-02-21T21:31:50.917Z,6.77
2023-02-21T21:34:23.154Z,5.80
2023-02-21T21:37:06.242Z,6.20
2023-02-21T21:39:37.807Z,6.38
2023-02-21T21:42:19.362Z,6.00
2023-02-21T21:44:56.240Z,5.63
2023-02-21T21:47:34.190Z,5.53
2023-02-21T21:50:05.973Z,5.90
2023-02-21T21:52:35.154Z,6.47
2023-02-21T21:55:03.643Z,5.85
2023-02-21T21:57:35.734Z,5.70
2023-02-21T22:00:14.533Z,5.75
2023-02-21T22:02:47.369Z,6.05
2023-02-21T22:05:16.096Z,5.65
2023-02-21T22:07:44.630Z,6.03
2023-02-21T22:10:13.619Z,5.95
2023-02-21T22:12:52.633Z,6.40
2023-02-21T22:15:23.357Z,6.00
2023-02-21T22:17:54.116Z,5.80
2023-02-21T22:20:28.463Z,5.20
2023-02-21T22:22:58.704Z,6.05
2023-02-21T22:25:32.728Z,5.40
2023-02-21T22:28:09.540Z,6.28
2023-02-21T22:30:42.531Z,6.13
2023-02-21T22:33:15.310Z,5.70
2023-02-21T22:35:43.829Z,6.50
2023-02-21T22:38:15.831Z,6.13
2023-02-21T22:40:46.004Z,6.25
2023-02-21T22:43:14.925Z,7.30
2023-02-21T22:45:49.732Z,8.52
2023-02-21T22:48:21.029Z,6.45
2023-02-21T22:50:50.188Z,6.85
2023-02-21T22:53:21.281Z,7.18
2023-02-21T22:55:52.447Z,6.45
2023-02-21T22:58:21.826Z,7.05
2023-02-21T23:00:53.731Z,6.70
2023-02-21T23:03:23.527Z,7.10
2023-02-21T23:05:52.660Z,7.00
2023-02-21T23:08:23.661Z,6.22
2023-02-21T23:10:52.317Z,6.07
2023-02-21T23:13:23.221Z,6.40
2023-02-21T23:15:55.462Z,5.80
2023-02-21T23:18:26.789Z,6.40
2023-02-21T23:20:56.811Z,5.78
2023-02-21T23:23:28.101Z,6.35
2023-02-21T23:25:58.880Z,6.80
2023-02-21T23:28:29.652Z,5.90
2023-02-21T23:30:58.552Z,6.03
2023-02-21T23:33:32.960Z,6.00
2023-02-21T23:36:01.500Z,5.97
2023-02-21T23:38:30.948Z,5.32
2023-02-21T23:41:01.978Z,6.43
2023-02-21T23:43:35.777Z,5.80
2023-02-21T23:46:07.274Z,6.18
2023-02-21T23:48:37.533Z,5.32
2023-02-21T23:51:11.416Z,5.38
2023-02-21T23:53:41.500Z,5.07
2023-02-21T23:56:14.049Z,5.32
2023-02-21T23:58:46.214Z,5.40
